Latest Weather Observations for Roseworthy

IDS60901

Issued at 5:11 pm CST Sunday 11 April 2021 (issued every 10 minutes, with the page automatically refreshed every 10 minutes)

About weather observations | Map of Adelaide area stations | Latest observations for Adelaide area | Other Formats
Station Details ID: 023122 Name: ROSEWORTHY AWS Lat: -34.51 Lon: 138.68 Height: 65.0 m
Data from the previous 72 hours. | See also: Recent months at Roseworthy
Date/Time
CST
Temp
°C
App
Temp
°C
Dew
Point
°C
Rel
Hum
%
Delta-T
°C
Wind Press
QNH
hPa
Press
MSL
hPa
Rain since
9am
mm
Dir  Spd
km/h
Gust
km/h
Spd
kts
Gust
kts
11/05:00pm 17.8 12.6 5.7 45 5.9 S 22 32 12 17 1022.9 1022.8 0.0
11/04:30pm 18.1 12.4 6.9 48 5.6 SW 26 37 14 20 1022.7 1022.6 0.0
11/04:00pm 17.9 12.2 6.7 48 5.6 SW 26 35 14 19 1022.7 1022.6 0.0
11/03:30pm 19.5 13.7 6.3 42 6.6 SW 26 35 14 19 1022.8 1022.7 0.0
11/03:00pm 18.2 13.2 3.7 38 6.8 S 19 32 10 17 1022.9 1022.8 0.0
11/02:30pm 18.4 13.6 4.9 41 6.5 S 19 28 10 15 1022.9 1022.8 0.0
11/02:00pm 18.4 13.5 5.3 42 6.4 S 20 30 11 16 1022.7 1022.6 0.0
11/01:30pm 19.2 13.8 4.6 38 7.0 S 22 32 12 17 1022.7 1022.6 0.0
11/01:00pm 18.4 13.0 4.6 40 6.6 S 22 39 12 21 1022.8 1022.7 0.0
11/12:30pm 18.6 13.7 4.0 38 6.9 S 19 30 10 16 1023.0 1022.9 0.0
11/12:00pm 17.5 12.1 4.5 42 6.2 SSW 22 30 12 16 1023.4 1023.3 0.0
11/11:30am 17.4 12.6 5.4 45 5.8 S 20 28 11 15 1023.7 1023.6 0.0
11/11:00am 17.0 12.3 6.2 49 5.3 S 20 32 11 17 1024.0 1023.9 0.0
11/10:30am 17.0 12.0 6.5 50 5.2 S 22 33 12 18 1024.0 1023.9 0.0
11/10:00am 16.6 11.8 5.6 48 5.3 S 20 30 11 16 1023.9 1023.8 0.0
11/09:30am 16.2 11.3 4.9 47 5.3 S 20 33 11 18 1023.9 1023.8 0.0
11/09:00am 16.0 11.0 4.4 46 5.4 SSW 20 32 11 17 1023.6 1023.5 0.0
11/08:30am 15.0 10.3 6.0 55 4.3 SSW 20 28 11 15 1023.4 1023.3 0.0
11/08:00am 14.1 11.5 7.9 66 3.1 S 11 17 6 9 1023.2 1023.1 0.0
11/07:30am 12.7 12.7 9.7 82 1.5 CALM 0 7 0 4 1022.8 1022.7 0.0
11/07:00am 12.3 12.1 9.1 81 1.6 CALM 0 6 0 3 1022.3 1022.2 0.0
11/06:30am 12.3 10.8 8.6 78 1.8 S 6 7 3 4 1021.8 1021.7 0.0
11/06:00am 12.6 9.4 8.5 76 2.0 S 15 22 8 12 1021.9 1021.8 0.0
11/05:30am 12.2 10.8 7.3 72 2.4 SSW 4 7 2 4 1021.3 1021.2 0.0
11/05:00am 12.1 9.7 6.8 70 2.5 S 9 13 5 7 1021.0 1020.9 0.0
11/04:30am 13.4 9.1 8.0 70 2.7 S 20 32 11 17 1020.9 1020.8 0.0
11/04:00am 14.0 10.5 7.3 64 3.3 S 15 19 8 10 1020.5 1020.4 0.0
11/03:30am 14.0 11.2 7.1 63 3.4 SSW 11 15 6 8 1020.2 1020.1 0.0
11/03:00am 13.9 11.5 7.2 64 3.3 SW 9 11 5 6 1020.1 1020.0 0.0
11/02:30am 13.3 12.2 8.6 73 2.4 WSW 4 7 2 4 1020.0 1019.9 0.0
11/02:00am 13.1 11.7 9.0 76 2.1 W 6 9 3 5 1020.0 1019.9 0.0
11/01:30am 13.8 11.8 8.6 71 2.6 SSW 9 11 5 6 1020.1 1020.0 0.0
11/01:00am 13.6 11.4 9.5 76 2.1 S 11 15 6 8 1020.1 1020.0 0.0
11/12:30am 13.6 11.1 9.6 77 2.0 S 13 19 7 10 1020.0 1019.9 0.0
11/12:00am 13.4 7.3 9.6 78 1.9 SSW 32 44 17 24 1020.2 1020.1 0.0
 
Date/Time
CST
Temp
°C
App
Temp
°C
Dew
Point
°C
Rel
Hum
%
Delta-T
°C
Wind Press
QNH
hPa
Press
MSL
hPa
Rain since
9am
mm
Dir  Spd
km/h
Gust
km/h
Spd
kts
Gust
kts
10/11:53pm 14.3 8.7 8.9 70 2.7 SW 28 48 15 26 1020.1 1020.0 0.0
10/11:30pm 14.4 10.4 9.2 71 2.7 SW 20 32 11 17 1020.0 1019.9 0.0
10/11:00pm 15.3 11.1 8.1 62 3.6 SSW 20 32 11 17 1020.0 1019.9 0.0
10/10:30pm 15.0 11.4 8.3 64 3.4 SW 17 24 9 13 1019.9 1019.8 0.0
10/10:00pm 14.9 10.6 7.9 63 3.5 SW 20 28 11 15 1019.8 1019.7 0.0
10/09:41pm 15.0 9.7 8.5 65 3.3 SW 26 43 14 23 1019.7 1019.6 0.0
10/09:30pm 14.9 11.3 8.2 64 3.4 SSW 17 22 9 12 1019.6 1019.5 0.0
10/09:00pm 15.2 10.9 8.0 62 3.6 SSW 20 28 11 15 1019.4 1019.3 0.0
10/08:30pm 15.2 10.5 9.1 67 3.1 SSW 24 32 13 17 1019.1 1019.0 0.0
10/08:00pm 14.5 10.9 8.2 66 3.2 SW 17 20 9 11 1018.7 1018.6 0.0
10/07:30pm 15.1 11.2 8.8 66 3.2 SSW 19 26 10 14 1018.5 1018.4 0.0
10/07:00pm 14.4 10.1 10.6 78 2.0 SSW 24 35 13 19 1018.2 1018.1 0.0
10/06:38pm 15.5 11.4 10.1 70 2.8 SW 22 50 12 27 1017.9 1017.8 0.0
10/06:30pm 16.0 12.7 8.0 59 4.0 SW 15 20 8 11 1017.6 1017.5 0.0
10/06:00pm 15.9 11.7 8.2 60 3.9 SSW 20 26 11 14 1017.3 1017.2 0.0
10/05:30pm 16.6 9.8 7.0 53 4.8 SSW 32 43 17 23 1017.1 1017.0 0.0
10/05:00pm 16.8 10.3 8.8 59 4.1 SSW 33 43 18 23 1016.9 1016.8 0.0
10/04:30pm 17.7 10.7 8.3 54 4.8 SW 35 44 19 24 1016.5 1016.4 0.0
10/04:00pm 18.0 11.0 6.2 46 5.8 SW 32 44 17 24 1016.5 1016.4 0.0
10/03:30pm 18.3 11.6 8.3 52 5.2 SSW 33 46 18 25 1016.3 1016.2 0.0
10/03:00pm 18.4 10.9 9.5 56 4.7 SW 39 54 21 29 1016.1 1016.0 0.0
10/02:30pm 19.3 12.5 10.6 57 4.7 SW 37 50 20 27 1015.8 1015.7 0.0
10/02:00pm 19.3 13.0 11.1 59 4.5 SW 35 50 19 27 1015.7 1015.6 0.0
10/01:30pm 18.3 13.4 12.5 69 3.2 SSW 30 44 16 24 1015.7 1015.6 0.0
10/01:00pm 17.6 13.3 13.3 76 2.4 SSW 28 37 15 20 1016.0 1015.9 0.0
10/12:35pm 18.1 12.9 13.4 74 2.7 SW 33 52 18 28 1015.9 1015.8 0.0
10/12:30pm 19.2 13.5 11.0 59 4.5 WSW 32 43 17 23 1015.7 1015.6 0.0
10/12:00pm 20.5 15.6 11.4 56 5.0 SW 28 37 15 20 1015.8 1015.7 0.0
10/11:30am 19.4 14.1 11.4 60 4.4 SW 30 37 16 20 1015.8 1015.7 0.0
10/11:00am 19.5 13.7 9.4 52 5.4 SW 30 39 16 21 1015.7 1015.6 0.0
10/10:30am 18.9 13.2 9.9 56 4.8 SW 30 41 16 22 1015.9 1015.8 0.0
10/10:00am 18.5 13.5 10.8 61 4.2 SSW 28 44 15 24 1016.0 1015.9 0.0
10/09:30am 17.1 13.2 12.2 73 2.7 SW 24 33 13 18 1016.0 1015.9 0.0
10/09:00am 16.0 14.9 14.2 89 1.0 SW 13 19 7 10 1015.9 1015.8 1.8
10/08:30am 14.8 12.7 13.7 93 0.6 WSW 17 24 9 13 1015.6 1015.5 1.8
10/08:00am 14.4 11.8 13.3 93 0.6 SSW 19 33 10 18 1015.2 1015.0 1.2
10/07:30am 14.4 13.1 13.6 95 0.4 WSW 13 15 7 8 1014.7 1014.5 1.2
10/07:00am 13.7 11.3 12.8 94 0.5 WSW 17 24 9 13 1014.4 1014.2 1.2
10/06:30am 13.6 11.9 13.6 100 0.0 WSW 15 20 8 11 1014.5 1014.3 1.2
10/06:00am 13.4 11.1 13.1 98 0.2 WSW 17 22 9 12 1014.2 1014.0 0.8
10/05:30am 13.7 11.4 13.1 96 0.3 WSW 17 22 9 12 1013.9 1013.7 0.4
10/05:00am 13.2 10.9 12.9 98 0.2 WNW 17 20 9 11 1013.8 1013.6 0.2
10/04:30am 13.1 11.4 12.6 97 0.3 SW 13 20 7 11 1013.7 1013.5 0.2
10/04:00am 13.2 10.8 12.6 96 0.3 SW 17 24 9 13 1013.9 1013.7 0.2
10/03:30am 13.8 9.0 11.7 87 1.1 SW 28 43 15 23 1013.7 1013.5 0.0
10/03:09am 15.6 11.9 10.2 70 2.8 SW 20 39 11 21 1013.6 1013.4 0.0
10/03:00am 16.1 13.0 7.1 55 4.5 WSW 13 19 7 10 1013.5 1013.3 0.0
10/02:30am 15.8 11.4 7.3 57 4.2 SW 20 28 11 15 1013.6 1013.4 0.0
10/02:00am 13.8 11.2 6.2 60 3.6 WSW 9 13 5 7 1013.5 1013.3 0.0
10/01:30am 15.2 11.5 6.2 55 4.4 SW 15 19 8 10 1013.6 1013.4 0.0
10/01:00am 15.8 11.3 6.3 53 4.6 SW 19 26 10 14 1013.8 1013.6 0.0
10/12:30am 16.7 12.3 7.4 54 4.7 SW 20 33 11 18 1013.7 1013.5 0.0
10/12:00am 16.6 13.9 8.8 60 4.0 WSW 13 22 7 12 1013.8 1013.6 0.0
 
Date/Time
CST
Temp
°C
App
Temp
°C
Dew
Point
°C
Rel
Hum
%
Delta-T
°C
Wind Press
QNH
hPa
Press
MSL
hPa
Rain since
9am
mm
Dir  Spd
km/h
Gust
km/h
Spd
kts
Gust
kts
09/11:30pm 16.3 14.4 9.0 62 3.8 SW 9 11 5 6 1013.8 1013.6 0.0
09/11:00pm 16.4 13.6 8.4 59 4.1 SSW 13 17 7 9 1014.0 1013.8 0.0
09/10:30pm 16.1 14.6 8.3 60 4.0 SW 6 9 3 5 1014.3 1014.1 0.0
09/10:00pm 16.2 14.2 8.7 61 3.8 SW 9 11 5 6 1014.2 1014.0 0.0
09/09:30pm 15.4 13.2 7.9 61 3.8 SW 9 13 5 7 1014.2 1014.0 0.0
09/09:00pm 16.1 14.0 8.1 59 4.0 SW 9 13 5 7 1014.2 1014.0 0.0
09/08:30pm 16.3 14.1 8.0 58 4.2 SSW 9 11 5 6 1013.9 1013.7 0.0
09/08:00pm 17.0 14.1 8.2 56 4.5 SSW 13 19 7 10 1013.6 1013.4 0.0
09/07:30pm 17.0 13.7 8.2 56 4.5 SSW 15 20 8 11 1013.2 1013.1 0.0
09/07:00pm 17.1 14.1 7.7 54 4.8 SW 13 17 7 9 1013.0 1012.9 0.0
09/06:30pm 17.2 12.7 7.0 51 5.1 SW 20 28 11 15 1012.6 1012.5 0.0
09/06:00pm 17.7 13.6 8.0 53 5.0 SW 19 28 10 15 1012.4 1012.3 0.0
09/05:30pm 18.3 13.5 8.8 54 4.9 SW 24 35 13 19 1011.9 1011.8 0.0
09/05:00pm 18.7 14.5 9.8 56 4.7 SW 22 32 12 17 1011.8 1011.7 0.0
09/04:30pm 18.9 13.4 9.1 53 5.2 SW 28 37 15 20 1011.7 1011.6 0.0
09/04:00pm 20.1 15.2 8.4 47 6.1 SW 24 33 13 18 1012.0 1011.9 0.0
09/03:30pm 20.4 15.6 8.7 47 6.2 SW 24 32 13 17 1011.7 1011.6 0.0
09/03:00pm 20.9 16.6 9.2 47 6.2 SW 22 35 12 19 1011.7 1011.6 0.0
09/02:30pm 20.7 16.7 9.0 47 6.2 SW 20 33 11 18 1011.8 1011.7 0.0
09/02:00pm 20.8 16.8 9.1 47 6.2 SW 20 28 11 15 1012.0 1011.9 0.0
09/01:30pm 21.7 18.2 8.6 43 6.9 W 17 26 9 14 1012.2 1012.1 0.0
09/01:00pm 20.9 17.1 7.5 42 6.9 SSW 17 24 9 13 1012.4 1012.3 0.0
09/12:30pm 20.8 18.8 8.8 46 6.3 WSW 9 17 5 9 1013.0 1012.9 0.0
09/12:00pm 19.9 17.7 9.2 50 5.7 SW 11 17 6 9 1013.3 1013.2 0.0
09/11:30am 19.3 17.1 9.5 53 5.2 S 11 20 6 11 1013.2 1013.1 0.0
09/11:00am 19.5 16.8 10.5 56 4.9 S 15 22 8 12 1013.1 1013.0 0.0
09/10:30am 18.9 16.1 11.2 61 4.2 S 17 20 9 11 1013.8 1013.6 0.0
09/10:00am 18.5 17.0 12.0 66 3.6 SSW 11 19 6 10 1014.0 1013.8 0.0
09/09:30am 17.7 16.3 12.2 70 3.0 SSW 11 17 6 9 1013.9 1013.7 0.0
09/09:00am 17.1 15.7 12.2 73 2.7 SSW 11 17 6 9 1014.4 1014.2 0.0
09/08:30am 17.0 15.1 11.9 72 2.8 S 13 20 7 11 1013.7 1013.5 0.0
09/08:00am 16.7 14.9 12.0 74 2.6 SSE 13 17 7 9 1013.3 1013.2 0.0
09/07:30am 16.3 14.9 12.1 76 2.3 SSE 11 17 6 9 1012.9 1012.8 0.0
09/07:00am 16.2 15.3 12.6 79 2.0 SSE 9 13 5 7 1012.4 1012.3 0.0
09/06:30am 16.3 14.3 12.7 79 2.0 SE 15 20 8 11 1011.8 1011.7 0.0
09/06:00am 16.8 15.7 13.1 79 2.1 SSE 11 15 6 8 1011.6 1011.5 0.0
09/05:30am 17.0 15.7 13.7 81 1.9 S 13 17 7 9 1011.2 1011.1 0.0
09/05:00am 17.4 15.5 14.3 82 1.8 S 17 24 9 13 1011.0 1010.9 0.0
09/04:30am 17.1 15.4 14.7 86 1.4 SSW 17 22 9 12 1010.6 1010.5 0.0
09/04:00am 17.1 15.0 15.1 88 1.2 SSW 20 28 11 15 1010.3 1010.2 0.0
09/03:30am 17.4 16.8 15.6 89 1.1 SW 13 20 7 11 1010.5 1010.4 0.0
09/03:00am 17.8 17.3 16.0 89 1.1 SW 13 19 7 10 1010.4 1010.3 0.0
09/02:30am 18.0 17.3 16.5 91 0.9 SSW 15 19 8 10 1010.2 1010.1 0.0
09/02:00am 18.0 17.0 16.7 92 0.8 S 17 20 9 11 1009.8 1009.7 0.0
09/01:30am 18.2 16.3 16.7 91 0.9 SSW 22 30 12 16 1011.2 1011.1 0.0
09/01:00am 19.2 17.6 17.5 90 1.0 SSW 22 33 12 18 1009.6 1009.5 0.0
09/12:30am 20.1 18.8 15.7 76 2.6 SW 17 26 9 14 1010.0 1009.9 0.0
09/12:00am 20.0 19.3 15.4 75 2.7 SSW 13 17 7 9 1009.7 1009.6 0.0
 
Date/Time
CST
Temp
°C
App
Temp
°C
Dew
Point
°C
Rel
Hum
%
Delta-T
°C
Wind Press
QNH
hPa
Press
MSL
hPa
Rain since
9am
mm
Dir  Spd
km/h
Gust
km/h
Spd
kts
Gust
kts
08/11:30pm 19.1 18.8 14.4 74 2.7 W 9 13 5 7 1009.4 1009.3 0.0
08/11:00pm 17.5 16.3 9.4 59 4.2 NNW 6 9 3 5 1009.6 1009.5 0.0
08/10:30pm 17.1 14.7 6.9 51 5.1 NW 9 11 5 6 1009.5 1009.4 0.0
08/10:00pm 17.7 14.9 5.3 44 6.0 NW 9 11 5 6 1009.3 1009.2 0.0
08/09:30pm 18.0 15.0 3.9 39 6.7 NNW 9 11 5 6 1009.0 1008.9 0.0
08/09:00pm 19.4 15.7 4.4 37 7.2 NNW 13 15 7 8 1008.6 1008.5 0.0
08/08:30pm 19.5 15.0 4.0 36 7.4 N 17 17 9 9 1007.9 1007.8 0.0
08/08:00pm 18.7 14.8 3.3 36 7.2 NNW 13 17 7 9 1008.0 1007.9 0.0
08/07:30pm 19.2 17.8 3.4 35 7.5 CALM 0 0 0 0 1007.8 1007.7 0.0
08/07:00pm 21.7 19.4 4.7 33 8.4 S 6 7 3 4 1007.6 1007.5 0.0
08/06:30pm 23.1 20.3 5.1 31 9.0 SSW 9 11 5 6 1007.6 1007.5 0.0
08/06:00pm 24.8 20.7 6.1 30 9.7 SSW 17 24 9 13 1007.1 1007.0 0.0
08/05:30pm 25.9 19.7 6.0 28 10.3 SW 28 39 15 21 1006.9 1006.8 0.0

Latest Capital City Observations: Canberra | Sydney | Melbourne | Brisbane | Adelaide | Perth | Hobart | Darwin

Other formats

Comma delimited format used in spreadsheet applications
http://www.bom.gov.au/fwo/IDS60901/IDS60901.95671.axf

JavaScript Object Notation format (JSON) in row-major order
http://www.bom.gov.au/fwo/IDS60901/IDS60901.95671.json

Data quality

Most of these data are generated automatically and are frequently updated. Quality checks on data are not normally performed. It is possible for incorrect values to appear. Refer to information at About Latest Weather Observations and please check the disclaimer before using these data.